createdAt,value
2023-02-13T00:01:30.142Z,11.99
2023-02-13T00:04:00.926Z,11.94
2023-02-13T00:06:29.340Z,11.89
2023-02-13T00:08:57.743Z,11.85
2023-02-13T00:11:26.171Z,11.81
2023-02-13T00:13:54.623Z,11.74
2023-02-13T00:16:23.048Z,11.68
2023-02-13T00:18:51.499Z,11.61
2023-02-13T00:21:21.611Z,11.55
2023-02-13T00:23:50.019Z,11.48
2023-02-13T00:26:19.430Z,11.41
2023-02-13T00:28:47.942Z,11.35
2023-02-13T00:31:18.974Z,11.26
2023-02-13T00:33:47.688Z,11.22
2023-02-13T00:36:20.953Z,11.15
2023-02-13T00:38:49.740Z,11.09
2023-02-13T00:41:19.002Z,11.04
2023-02-13T00:43:48.975Z,10.98
2023-02-13T00:46:17.880Z,10.92
2023-02-13T00:48:46.725Z,10.87
2023-02-13T00:51:15.270Z,10.83
2023-02-13T00:53:45.164Z,10.77
2023-02-13T00:56:13.606Z,10.74
2023-02-13T00:58:42.039Z,10.68
2023-02-13T01:01:10.643Z,10.64
2023-02-13T01:03:39.330Z,10.59
2023-02-13T01:06:08.889Z,10.54
2023-02-13T01:08:40.903Z,10.50
2023-02-13T01:11:10.965Z,10.46
2023-02-13T01:13:39.407Z,10.43
2023-02-13T01:16:08.600Z,10.39
2023-02-13T01:18:37.145Z,10.36
2023-02-13T01:21:09.694Z,10.33
2023-02-13T01:23:39.990Z,10.31
2023-02-13T01:26:14.961Z,10.27
2023-02-13T01:28:43.370Z,10.27
2023-02-13T01:31:12.050Z,10.29
2023-02-13T01:33:40.578Z,10.32
2023-02-13T01:36:11.751Z,10.36
2023-02-13T01:38:40.983Z,10.40
2023-02-13T01:41:11.662Z,10.47
2023-02-13T01:43:53.986Z,10.52
2023-02-13T01:46:30.837Z,10.58
2023-02-13T01:49:05.240Z,10.64
2023-02-13T01:51:36.481Z,10.71
2023-02-13T01:54:10.302Z,10.75
2023-02-13T01:56:44.679Z,10.81
2023-02-13T01:59:18.316Z,10.87
2023-02-13T02:01:47.154Z,10.93
2023-02-13T02:04:22.588Z,11.00
2023-02-13T02:06:55.814Z,11.06
2023-02-13T02:09:28.459Z,11.11
2023-02-13T02:12:07.076Z,11.16
2023-02-13T02:14:36.278Z,11.23
2023-02-13T02:17:04.936Z,11.26
2023-02-13T02:19:40.499Z,11.27
2023-02-13T02:22:59.101Z,11.29
2023-02-13T02:26:27.378Z,11.28
2023-02-13T02:29:43.282Z,11.27
2023-02-13T02:32:30.160Z,11.33
2023-02-13T02:35:12.275Z,11.38
2023-02-13T02:38:03.410Z,11.44
2023-02-13T02:40:44.071Z,11.47
2023-02-13T02:43:31.896Z,11.52
2023-02-13T02:46:09.507Z,11.55
2023-02-13T02:49:07.135Z,11.55
2023-02-13T02:51:42.339Z,11.57
2023-02-13T02:54:36.445Z,11.60
2023-02-13T02:57:14.125Z,11.62
2023-02-13T03:00:17.063Z,11.67
2023-02-13T03:03:03.221Z,11.69
2023-02-13T03:05:54.059Z,11.70
2023-02-13T03:08:42.625Z,11.69
2023-02-13T03:11:29.062Z,11.70
2023-02-13T03:14:02.036Z,11.70
2023-02-13T03:16:56.977Z,11.72
2023-02-13T03:19:57.069Z,11.73
2023-02-13T03:22:42.728Z,11.75
2023-02-13T03:25:30.376Z,11.78
2023-02-13T03:28:24.257Z,11.81
2023-02-13T03:31:06.557Z,11.84
2023-02-13T03:33:59.145Z,11.88
2023-02-13T03:36:56.870Z,11.92
2023-02-13T03:39:44.540Z,11.92
2023-02-13T03:42:22.358Z,11.94
2023-02-13T03:45:11.237Z,11.96
2023-02-13T03:47:41.588Z,12.01
2023-02-13T03:50:12.342Z,12.05
2023-02-13T03:52:48.730Z,12.08
2023-02-13T03:55:40.151Z,12.09
2023-02-13T03:58:32.632Z,12.09
2023-02-13T04:01:07.833Z,12.09
2023-02-13T04:03:43.992Z,12.12
2023-02-13T04:06:17.050Z,12.14
2023-02-13T04:08:45.602Z,12.16
2023-02-13T04:11:21.252Z,12.17
2023-02-13T04:13:57.147Z,12.16
2023-02-13T04:16:33.189Z,12.17
2023-02-13T04:19:03.548Z,12.17
2023-02-13T04:21:34.814Z,12.20
2023-02-13T04:24:03.299Z,12.22
2023-02-13T04:26:37.497Z,12.23
2023-02-13T04:29:06.495Z,12.23
2023-02-13T04:31:35.666Z,12.26
2023-02-13T04:34:04.288Z,12.28
2023-02-13T04:36:32.775Z,12.31
2023-02-13T04:39:01.150Z,12.33
2023-02-13T04:41:29.562Z,12.35
2023-02-13T04:43:59.496Z,12.38
2023-02-13T04:46:28.047Z,12.42
2023-02-13T04:48:56.485Z,12.43
2023-02-13T04:51:24.862Z,12.45
2023-02-13T04:53:53.236Z,12.47
2023-02-13T04:56:21.745Z,12.50
2023-02-13T04:58:50.117Z,12.52
2023-02-13T05:01:20.046Z,12.51
2023-02-13T05:03:48.538Z,12.50
2023-02-13T05:06:16.940Z,12.49
2023-02-13T05:08:45.468Z,12.48
2023-02-13T05:11:13.861Z,12.48
2023-02-13T05:13:42.265Z,12.48
2023-02-13T05:16:10.741Z,12.49
2023-02-13T05:18:40.601Z,12.50
2023-02-13T05:21:26.147Z,12.51
2023-02-13T05:23:54.537Z,12.50
2023-02-13T05:26:22.897Z,12.51
2023-02-13T05:29:08.598Z,12.52
2023-02-13T05:31:37.047Z,12.52
2023-02-13T05:34:06.895Z,12.53
2023-02-13T05:36:35.354Z,12.54
2023-02-13T05:39:03.973Z,12.55
2023-02-13T05:41:32.359Z,12.58
2023-02-13T05:44:00.992Z,12.62
2023-02-13T05:46:29.415Z,12.64
2023-02-13T05:48:57.852Z,12.66
2023-02-13T05:51:27.804Z,12.67
2023-02-13T05:53:56.172Z,12.67
2023-02-13T05:56:24.845Z,12.66
2023-02-13T05:58:53.839Z,12.66
2023-02-13T06:01:22.806Z,12.66
2023-02-13T06:03:52.034Z,12.65
2023-02-13T06:06:21.388Z,12.63
2023-02-13T06:08:51.159Z,12.61
2023-02-13T06:11:19.808Z,12.59
2023-02-13T06:13:48.353Z,12.56
2023-02-13T06:16:16.862Z,12.52
2023-02-13T06:18:45.338Z,12.50
2023-02-13T06:21:13.766Z,12.47
2023-02-13T06:23:42.126Z,12.47
2023-02-13T06:26:12.202Z,12.47
2023-02-13T06:28:40.756Z,12.48
2023-02-13T06:31:09.391Z,12.46
2023-02-13T06:33:37.821Z,12.47
2023-02-13T06:36:07.014Z,12.46
2023-02-13T06:38:35.393Z,12.45
2023-02-13T06:41:04.683Z,12.45
2023-02-13T06:43:34.655Z,12.43
2023-02-13T06:46:06.950Z,12.43
2023-02-13T06:48:35.887Z,12.43
2023-02-13T06:51:04.362Z,12.43
2023-02-13T06:53:33.018Z,12.43
2023-02-13T06:56:04.976Z,12.43
2023-02-13T06:58:35.125Z,12.44
2023-02-13T07:01:03.757Z,12.44
2023-02-13T07:03:32.181Z,12.45
2023-02-13T07:06:00.823Z,12.46
2023-02-13T07:08:29.512Z,12.47
2023-02-13T07:10:58.356Z,12.48
2023-02-13T07:13:26.921Z,12.47
2023-02-13T07:15:58.122Z,12.48
2023-02-13T07:18:26.960Z,12.49
2023-02-13T07:20:55.530Z,12.49
2023-02-13T07:23:24.100Z,12.49
2023-02-13T07:25:52.580Z,12.50
2023-02-13T07:28:21.043Z,12.49
2023-02-13T07:30:49.483Z,12.49
2023-02-13T07:33:19.389Z,12.50
2023-02-13T07:35:49.130Z,12.50
2023-02-13T07:38:18.535Z,12.51
2023-02-13T07:40:47.100Z,12.52
2023-02-13T07:43:15.540Z,12.54
2023-02-13T07:45:44.114Z,12.54
2023-02-13T07:48:12.497Z,12.56
2023-02-13T07:50:42.296Z,12.58
2023-02-13T07:53:11.396Z,12.61
2023-02-13T07:55:39.834Z,12.65
2023-02-13T07:58:08.224Z,12.67
2023-02-13T08:00:36.825Z,12.68
2023-02-13T08:03:05.739Z,12.69
2023-02-13T08:05:35.489Z,12.71
2023-02-13T08:08:05.732Z,12.74
2023-02-13T08:10:51.514Z,12.76
2023-02-13T08:13:20.342Z,12.77
2023-02-13T08:15:48.798Z,12.78
2023-02-13T08:18:19.011Z,12.82
2023-02-13T08:20:48.647Z,12.83
2023-02-13T08:23:18.641Z,12.85
2023-02-13T08:25:47.869Z,12.87
2023-02-13T08:28:16.770Z,12.90
2023-02-13T08:30:45.348Z,12.93
2023-02-13T08:33:13.860Z,12.98
2023-02-13T08:35:42.387Z,13.01
2023-02-13T08:38:11.402Z,13.05
2023-02-13T08:40:41.604Z,13.06
2023-02-13T08:43:10.072Z,13.09
2023-02-13T08:45:39.110Z,13.10
2023-02-13T08:48:07.804Z,13.12
2023-02-13T08:50:37.148Z,13.14
2023-02-13T08:53:06.120Z,13.18
2023-02-13T08:55:34.617Z,13.23
2023-02-13T08:58:05.955Z,13.26
2023-02-13T09:00:34.553Z,13.27
2023-02-13T09:03:03.536Z,13.26
2023-02-13T09:05:33.020Z,13.27
2023-02-13T09:08:03.798Z,13.28
2023-02-13T09:10:33.424Z,13.27
2023-02-13T09:13:03.628Z,13.27
2023-02-13T09:15:32.826Z,13.27
2023-02-13T09:18:01.452Z,13.29
2023-02-13T09:20:30.178Z,13.30
2023-02-13T09:22:58.633Z,13.31
2023-02-13T09:25:27.436Z,13.35
2023-02-13T09:27:55.869Z,13.35
2023-02-13T09:30:25.860Z,13.35
2023-02-13T09:32:55.923Z,13.36
2023-02-13T09:35:25.085Z,13.37
2023-02-13T09:37:53.562Z,13.40
2023-02-13T09:40:29.584Z,13.43
2023-02-13T09:43:08.175Z,13.45
2023-02-13T09:45:39.320Z,13.48
2023-02-13T09:48:11.774Z,13.48
2023-02-13T09:50:40.627Z,13.49
2023-02-13T09:53:13.588Z,13.51
2023-02-13T09:55:53.044Z,13.51
2023-02-13T09:58:40.296Z,13.50
2023-02-13T10:01:25.560Z,13.50
2023-02-13T10:04:23.365Z,13.49
2023-02-13T10:07:07.792Z,13.49
2023-02-13T10:09:45.982Z,13.47
2023-02-13T10:12:48.812Z,13.45
2023-02-13T10:15:29.096Z,13.45
2023-02-13T10:18:05.077Z,13.46
2023-02-13T10:20:38.956Z,13.49
2023-02-13T10:23:21.708Z,13.51
2023-02-13T10:25:58.355Z,13.60
2023-02-13T10:28:38.666Z,13.67
2023-02-13T10:31:11.087Z,13.71
2023-02-13T10:33:48.952Z,13.75
2023-02-13T10:36:22.406Z,13.80
2023-02-13T10:39:01.563Z,13.89
2023-02-13T10:41:45.540Z,14.02
2023-02-13T10:44:46.333Z,14.21
2023-02-13T10:47:34.011Z,14.39
2023-02-13T10:50:20.998Z,14.60
2023-02-13T10:53:01.179Z,14.76
2023-02-13T10:56:17.644Z,14.92
2023-02-13T10:59:04.502Z,15.07
2023-02-13T11:01:40.944Z,15.19
2023-02-13T11:04:12.978Z,15.31
2023-02-13T11:06:52.199Z,15.39
2023-02-13T11:09:21.099Z,15.46
2023-02-13T11:11:49.559Z,15.50
2023-02-13T11:14:20.679Z,15.53
2023-02-13T11:17:02.334Z,15.55
2023-02-13T11:19:34.390Z,15.61
2023-02-13T11:22:09.872Z,15.66
2023-02-13T11:24:41.478Z,15.70
2023-02-13T11:27:14.111Z,15.76
2023-02-13T11:29:57.407Z,15.74
2023-02-13T11:32:27.805Z,15.69
2023-02-13T11:34:56.510Z,15.60
2023-02-13T11:37:29.596Z,15.53
2023-02-13T11:40:00.141Z,15.49
2023-02-13T11:42:33.388Z,15.50
2023-02-13T11:45:05.023Z,15.51
2023-02-13T11:47:38.675Z,15.47
2023-02-13T11:50:22.649Z,15.42
2023-02-13T11:52:59.687Z,15.40
2023-02-13T11:55:33.560Z,15.37
2023-02-13T11:58:04.769Z,15.35
2023-02-13T12:00:41.668Z,15.29
2023-02-13T12:03:29.083Z,15.25
2023-02-13T12:06:08.109Z,15.29
2023-02-13T12:08:40.614Z,15.37
2023-02-13T12:11:23.725Z,15.45
2023-02-13T12:13:53.886Z,15.52
2023-02-13T12:16:34.102Z,15.49
2023-02-13T12:19:09.014Z,15.45
2023-02-13T12:22:07.122Z,15.42
2023-02-13T12:24:57.209Z,15.36
2023-02-13T12:27:37.132Z,15.31
2023-02-13T12:30:48.219Z,15.21
2023-02-13T12:33:33.380Z,15.09
2023-02-13T12:36:11.396Z,15.02
2023-02-13T12:38:59.507Z,14.94
2023-02-13T12:41:40.111Z,14.88
2023-02-13T12:44:46.013Z,14.79
2023-02-13T12:47:21.416Z,14.79
2023-02-13T12:50:33.894Z,14.80
2023-02-13T12:53:39.536Z,14.86
2023-02-13T12:56:31.337Z,14.96
2023-02-13T12:59:11.242Z,15.01
2023-02-13T13:02:19.971Z,15.03
2023-02-13T13:05:03.154Z,15.08
2023-02-13T13:07:50.405Z,15.15
2023-02-13T13:10:39.414Z,15.21
2023-02-13T13:13:23.018Z,15.29
2023-02-13T13:16:03.475Z,15.77
2023-02-13T13:18:48.780Z,16.42
2023-02-13T13:21:36.768Z,16.81
2023-02-13T13:24:13.903Z,16.99
2023-02-13T13:26:47.150Z,17.06
2023-02-13T13:29:22.396Z,17.12
2023-02-13T13:31:57.498Z,17.19
2023-02-13T13:34:28.674Z,17.17
2023-02-13T13:37:05.956Z,17.09
2023-02-13T13:39:48.092Z,16.99
2023-02-13T13:42:26.021Z,16.88
2023-02-13T13:45:32.299Z,16.66
2023-02-13T13:48:52.216Z,16.54
2023-02-13T13:51:21.522Z,16.48
2023-02-13T13:54:23.393Z,16.41
2023-02-13T13:57:13.621Z,16.32
2023-02-13T14:00:30.048Z,16.16
2023-02-13T14:03:25.732Z,16.05
2023-02-13T14:06:09.733Z,16.00
2023-02-13T14:09:43.527Z,15.91
2023-02-13T14:12:39.780Z,15.81
2023-02-13T14:15:55.138Z,15.68
2023-02-13T14:18:25.420Z,15.63
2023-02-13T14:20:58.519Z,15.59
2023-02-13T14:23:53.265Z,15.55
2023-02-13T14:26:42.141Z,15.51
2023-02-13T14:29:31.256Z,15.47
2023-02-13T14:32:21.032Z,15.42
2023-02-13T14:35:00.296Z,15.36
2023-02-13T14:37:40.140Z,15.36
2023-02-13T14:40:49.017Z,15.31
2023-02-13T14:43:50.590Z,15.28
2023-02-13T14:46:34.094Z,15.25
2023-02-13T14:49:08.538Z,15.26
2023-02-13T14:51:41.248Z,15.23
2023-02-13T14:54:25.943Z,15.20
2023-02-13T14:57:06.742Z,15.16
2023-02-13T14:59:40.537Z,15.13
2023-02-13T15:02:21.254Z,15.07
2023-02-13T15:04:55.199Z,15.04
2023-02-13T15:07:28.975Z,15.00
2023-02-13T15:10:02.563Z,14.98
2023-02-13T15:12:37.003Z,14.95
2023-02-13T15:15:26.107Z,14.88
2023-02-13T15:18:00.040Z,14.86
2023-02-13T15:20:34.233Z,14.85
2023-02-13T15:23:03.517Z,14.84
2023-02-13T15:25:39.577Z,14.79
2023-02-13T15:28:20.838Z,14.75
2023-02-13T15:30:59.256Z,14.69
2023-02-13T15:33:30.792Z,14.66
2023-02-13T15:36:02.334Z,14.60
2023-02-13T15:38:33.825Z,14.54
2023-02-13T15:41:06.648Z,14.50
2023-02-13T15:43:41.140Z,14.47
2023-02-13T15:46:23.691Z,14.41
2023-02-13T15:48:53.780Z,14.39
2023-02-13T15:51:26.675Z,14.37
2023-02-13T15:53:58.034Z,14.36
2023-02-13T15:56:29.997Z,14.36
2023-02-13T15:59:02.590Z,14.34
2023-02-13T16:01:34.184Z,14.33
2023-02-13T16:04:08.545Z,14.30
2023-02-13T16:06:38.235Z,14.26
2023-02-13T16:09:07.574Z,14.21
2023-02-13T16:11:39.750Z,14.16
2023-02-13T16:14:19.519Z,14.11
2023-02-13T16:16:54.582Z,14.11
2023-02-13T16:19:38.071Z,14.09
2023-02-13T16:22:31.577Z,14.05
2023-02-13T16:25:18.568Z,14.06
2023-02-13T16:27:51.306Z,14.04
2023-02-13T16:30:37.283Z,14.00
2023-02-13T16:33:32.600Z,13.98
2023-02-13T16:36:20.608Z,13.99
2023-02-13T16:38:52.030Z,13.99
2023-02-13T16:41:35.088Z,13.95
2023-02-13T16:44:05.676Z,13.96
2023-02-13T16:46:38.860Z,13.96
2023-02-13T16:49:21.152Z,13.96
2023-02-13T16:52:01.442Z,13.96
2023-02-13T16:54:40.265Z,13.97
2023-02-13T16:57:30.335Z,13.95
2023-02-13T17:00:10.034Z,13.93
2023-02-13T17:02:42.386Z,13.92
2023-02-13T17:05:23.168Z,13.91
2023-02-13T17:07:54.702Z,13.93
2023-02-13T17:10:29.818Z,13.92
2023-02-13T17:13:02.936Z,13.88
2023-02-13T17:15:34.177Z,13.87
2023-02-13T17:18:06.202Z,13.88
2023-02-13T17:20:37.520Z,13.86
2023-02-13T17:23:09.526Z,13.84
2023-02-13T17:25:40.081Z,13.83
2023-02-13T17:28:15.721Z,13.81
2023-02-13T17:30:47.688Z,13.79
2023-02-13T17:33:23.899Z,13.74
2023-02-13T17:35:55.239Z,13.70
2023-02-13T17:38:27.417Z,13.69
2023-02-13T17:40:57.366Z,13.67
2023-02-13T17:43:30.688Z,13.65
2023-02-13T17:46:02.571Z,13.62
2023-02-13T17:48:34.636Z,13.62
2023-02-13T17:51:08.913Z,13.61
2023-02-13T17:53:38.876Z,13.60
2023-02-13T17:56:09.104Z,13.59
2023-02-13T17:58:39.028Z,13.56
2023-02-13T18:01:09.673Z,13.55
2023-02-13T18:03:43.375Z,13.54
2023-02-13T18:06:16.422Z,13.54
2023-02-13T18:08:46.598Z,13.54
2023-02-13T18:11:17.160Z,13.53
2023-02-13T18:13:49.023Z,13.51
2023-02-13T18:16:19.015Z,13.50
2023-02-13T18:18:50.812Z,13.50
2023-02-13T18:21:23.837Z,13.48
2023-02-13T18:23:54.757Z,13.47
2023-02-13T18:26:24.929Z,13.45
2023-02-13T18:28:54.301Z,13.45
2023-02-13T18:31:24.911Z,13.42
2023-02-13T18:33:59.279Z,13.40
2023-02-13T18:36:30.004Z,13.38
2023-02-13T18:39:03.783Z,13.35
2023-02-13T18:41:33.978Z,13.34
2023-02-13T18:44:04.648Z,13.35
2023-02-13T18:46:34.937Z,13.33
2023-02-13T18:49:07.254Z,13.31
2023-02-13T18:51:41.466Z,13.32
2023-02-13T18:54:12.430Z,13.31
2023-02-13T18:56:42.003Z,13.30
2023-02-13T18:59:13.167Z,13.25
2023-02-13T19:01:45.644Z,13.22
2023-02-13T19:04:18.295Z,13.18
2023-02-13T19:06:50.452Z,13.17
2023-02-13T19:09:22.221Z,13.14
2023-02-13T19:11:52.415Z,13.12
2023-02-13T19:14:25.185Z,13.09
2023-02-13T19:16:57.235Z,13.08
2023-02-13T19:19:28.364Z,13.08
2023-02-13T19:21:58.738Z,13.06
2023-02-13T19:24:29.092Z,13.06
2023-02-13T19:26:59.216Z,13.06
2023-02-13T19:29:33.678Z,13.06
2023-02-13T19:32:06.660Z,13.07
2023-02-13T19:34:38.817Z,13.07
2023-02-13T19:37:08.581Z,13.08
2023-02-13T19:39:38.337Z,13.11
2023-02-13T19:42:10.697Z,13.11
2023-02-13T19:44:41.249Z,13.10
2023-02-13T19:47:12.075Z,13.09
2023-02-13T19:49:44.381Z,13.10
2023-02-13T19:52:15.223Z,13.11
2023-02-13T19:54:46.161Z,13.10
2023-02-13T19:57:17.766Z,13.11
2023-02-13T19:59:48.351Z,13.10
2023-02-13T20:02:33.527Z,13.08
2023-02-13T20:05:09.446Z,13.05
2023-02-13T20:07:39.457Z,13.03
2023-02-13T20:10:11.363Z,13.01
2023-02-13T20:12:43.152Z,13.00
2023-02-13T20:15:17.178Z,12.98
2023-02-13T20:17:48.622Z,12.98
2023-02-13T20:20:20.855Z,12.96
2023-02-13T20:22:53.087Z,12.95
2023-02-13T20:25:25.283Z,12.94
2023-02-13T20:27:56.049Z,12.94
2023-02-13T20:30:27.024Z,12.92
2023-02-13T20:32:57.466Z,12.92
2023-02-13T20:35:30.552Z,12.91
2023-02-13T20:38:01.418Z,12.91
2023-02-13T20:40:32.556Z,12.90
2023-02-13T20:43:04.936Z,12.87
2023-02-13T20:45:35.237Z,12.84
2023-02-13T20:48:07.989Z,12.82
2023-02-13T20:50:40.338Z,12.79
2023-02-13T20:53:10.934Z,12.78
2023-02-13T20:55:41.695Z,12.78
2023-02-13T20:58:11.180Z,12.78
2023-02-13T21:00:41.562Z,12.76
2023-02-13T21:03:14.732Z,12.75
2023-02-13T21:05:50.935Z,12.71
2023-02-13T21:08:22.164Z,12.68
2023-02-13T21:10:53.069Z,12.65
2023-02-13T21:13:23.637Z,12.63
2023-02-13T21:15:58.998Z,12.61
2023-02-13T21:18:29.691Z,12.60
2023-02-13T21:21:04.061Z,12.60
2023-02-13T21:23:33.530Z,12.58
2023-02-13T21:26:07.700Z,12.53
2023-02-13T21:28:38.524Z,12.47
2023-02-13T21:31:09.430Z,12.40
2023-02-13T21:33:39.555Z,12.34
2023-02-13T21:36:13.626Z,12.25
2023-02-13T21:38:44.496Z,12.15
2023-02-13T21:41:16.524Z,12.05
2023-02-13T21:43:48.014Z,11.94
2023-02-13T21:46:19.290Z,11.83
2023-02-13T21:48:49.093Z,11.74
2023-02-13T21:51:21.865Z,11.64
2023-02-13T21:53:51.689Z,11.56
2023-02-13T21:56:22.769Z,11.47
2023-02-13T21:58:52.755Z,11.39
2023-02-13T22:01:26.851Z,11.32
2023-02-13T22:04:00.137Z,11.25
2023-02-13T22:06:33.149Z,11.18
2023-02-13T22:09:05.144Z,11.12
2023-02-13T22:11:34.470Z,11.09
2023-02-13T22:14:05.452Z,11.05
2023-02-13T22:16:36.412Z,11.06
2023-02-13T22:19:06.213Z,11.09
2023-02-13T22:21:37.333Z,11.14
2023-02-13T22:24:06.698Z,11.20
2023-02-13T22:26:37.283Z,11.24
2023-02-13T22:29:08.301Z,11.30
2023-02-13T22:31:37.430Z,11.34
2023-02-13T22:34:06.906Z,11.34
2023-02-13T22:36:39.625Z,11.34
2023-02-13T22:39:09.820Z,11.30
2023-02-13T22:41:38.815Z,11.28
2023-02-13T22:44:07.434Z,11.23
2023-02-13T22:46:36.518Z,11.20
2023-02-13T22:49:04.994Z,11.15
2023-02-13T22:51:37.214Z,11.10
2023-02-13T22:54:06.154Z,11.03
2023-02-13T22:56:35.659Z,10.98
2023-02-13T22:59:04.338Z,10.91
2023-02-13T23:01:33.051Z,10.85
2023-02-13T23:04:01.880Z,10.79
2023-02-13T23:06:30.671Z,10.74
2023-02-13T23:09:00.513Z,10.68
2023-02-13T23:11:47.346Z,10.62
2023-02-13T23:14:16.363Z,10.55
2023-02-13T23:17:03.196Z,10.50
2023-02-13T23:19:32.047Z,10.45
2023-02-13T23:22:01.289Z,10.40
2023-02-13T23:24:31.840Z,10.37
2023-02-13T23:27:00.916Z,10.34
2023-02-13T23:29:29.351Z,10.31
2023-02-13T23:31:58.008Z,10.28
2023-02-13T23:34:26.559Z,10.26
2023-02-13T23:36:54.995Z,10.29
2023-02-13T23:39:24.334Z,10.34
2023-02-13T23:41:54.118Z,10.39
2023-02-13T23:44:22.502Z,10.48
2023-02-13T23:46:50.912Z,10.56
2023-02-13T23:49:20.942Z,10.65
2023-02-13T23:51:49.834Z,10.72
2023-02-13T23:54:19.814Z,10.79
2023-02-13T23:56:49.997Z,10.84
2023-02-13T23:59:21.260Z,10.89
